sensor_id;sensor_type;location;lat;lon;timestamp;P1;durP1;ratioP1;P2;durP2;ratioP2
64738;SDS011;51175;51.186;0.276;2024-01-16T00:00:26;14.23;;;5.78;;
64738;SDS011;51175;51.186;0.276;2024-01-16T00:00:57;11.07;;;5.30;;
64738;SDS011;51175;51.186;0.276;2024-01-16T00:01:27;13.75;;;5.68;;
64738;SDS011;51175;51.186;0.276;2024-01-16T00:01:57;11.25;;;5.88;;
64738;SDS011;51175;51.186;0.276;2024-01-16T00:02:28;12.60;;;5.60;;
64738;SDS011;51175;51.186;0.276;2024-01-16T00:02:58;18.25;;;6.68;;
64738;SDS011;51175;51.186;0.276;2024-01-16T00:03:28;12.75;;;5.78;;
64738;SDS011;51175;51.186;0.276;2024-01-16T00:03:59;9.30;;;5.63;;
64738;SDS011;51175;51.186;0.276;2024-01-16T00:04:29;10.77;;;5.35;;
64738;SDS011;51175;51.186;0.276;2024-01-16T00:05:01;12.98;;;5.82;;
64738;SDS011;51175;51.186;0.276;2024-01-16T00:05:31;10.82;;;5.63;;
64738;SDS011;51175;51.186;0.276;2024-01-16T00:06:01;16.27;;;6.68;;
64738;SDS011;51175;51.186;0.276;2024-01-16T00:06:32;13.55;;;5.80;;
64738;SDS011;51175;51.186;0.276;2024-01-16T00:07:02;11.85;;;5.93;;
64738;SDS011;51175;51.186;0.276;2024-01-16T00:07:34;15.15;;;6.78;;
64738;SDS011;51175;51.186;0.276;2024-01-16T00:08:06;14.90;;;6.28;;
64738;SDS011;51175;51.186;0.276;2024-01-16T00:08:36;12.82;;;5.80;;
64738;SDS011;51175;51.186;0.276;2024-01-16T00:09:07;11.02;;;5.65;;
64738;SDS011;51175;51.186;0.276;2024-01-16T00:09:37;18.25;;;5.78;;
64738;SDS011;51175;51.186;0.276;2024-01-16T00:10:08;10.65;;;5.25;;
64738;SDS011;51175;51.186;0.276;2024-01-16T00:10:39;9.98;;;5.07;;
64738;SDS011;51175;51.186;0.276;2024-01-16T00:11:09;10.95;;;4.53;;
64738;SDS011;51175;51.186;0.276;2024-01-16T00:11:40;11.02;;;6.40;;
64738;SDS011;51175;51.186;0.276;2024-01-16T00:12:11;7.22;;;3.95;;
64738;SDS011;51175;51.186;0.276;2024-01-16T00:12:41;13.13;;;6.03;;
64738;SDS011;51175;51.186;0.276;2024-01-16T00:13:12;12.00;;;4.97;;
64738;SDS011;51175;51.186;0.276;2024-01-16T00:13:42;12.13;;;5.60;;
64738;SDS011;51175;51.186;0.276;2024-01-16T00:14:13;8.10;;;4.95;;
64738;SDS011;51175;51.186;0.276;2024-01-16T00:14:43;11.43;;;5.30;;
64738;SDS011;51175;51.186;0.276;2024-01-16T00:15:14;11.25;;;4.93;;
64738;SDS011;51175;51.186;0.276;2024-01-16T00:15:44;10.57;;;4.55;;
64738;SDS011;51175;51.186;0.276;2024-01-16T00:16:14;12.40;;;5.35;;
64738;SDS011;51175;51.186;0.276;2024-01-16T00:16:45;10.80;;;4.93;;
64738;SDS011;51175;51.186;0.276;2024-01-16T00:17:17;14.20;;;5.30;;
64738;SDS011;51175;51.186;0.276;2024-01-16T00:17:48;11.15;;;5.60;;
64738;SDS011;51175;51.186;0.276;2024-01-16T00:18:18;9.13;;;4.55;;
64738;SDS011;51175;51.186;0.276;2024-01-16T00:18:48;9.07;;;5.35;;
64738;SDS011;51175;51.186;0.276;2024-01-16T00:19:19;10.23;;;5.90;;
64738;SDS011;51175;51.186;0.276;2024-01-16T00:19:49;8.70;;;4.95;;
64738;SDS011;51175;51.186;0.276;2024-01-16T00:20:20;9.57;;;4.55;;
64738;SDS011;51175;51.186;0.276;2024-01-16T00:20:52;9.50;;;5.20;;
64738;SDS011;51175;51.186;0.276;2024-01-16T00:21:22;10.07;;;4.80;;
64738;SDS011;51175;51.186;0.276;2024-01-16T00:21:52;8.10;;;4.03;;
64738;SDS011;51175;51.186;0.276;2024-01-16T00:22:23;10.80;;;5.40;;
64738;SDS011;51175;51.186;0.276;2024-01-16T00:22:53;9.50;;;4.90;;
64738;SDS011;51175;51.186;0.276;2024-01-16T00:23:24;10.85;;;4.97;;
64738;SDS011;51175;51.186;0.276;2024-01-16T00:23:55;7.78;;;5.10;;
64738;SDS011;51175;51.186;0.276;2024-01-16T00:24:25;19.10;;;5.68;;
64738;SDS011;51175;51.186;0.276;2024-01-16T00:24:55;16.52;;;7.05;;
64738;SDS011;51175;51.186;0.276;2024-01-16T00:25:26;10.90;;;4.85;;
64738;SDS011;51175;51.186;0.276;2024-01-16T00:25:56;10.80;;;5.03;;
64738;SDS011;51175;51.186;0.276;2024-01-16T00:26:27;11.88;;;4.78;;
64738;SDS011;51175;51.186;0.276;2024-01-16T00:26:57;6.53;;;3.83;;
64738;SDS011;51175;51.186;0.276;2024-01-16T00:27:27;11.52;;;4.72;;
64738;SDS011;51175;51.186;0.276;2024-01-16T00:27:58;8.40;;;4.82;;
64738;SDS011;51175;51.186;0.276;2024-01-16T00:28:28;7.68;;;5.05;;
64738;SDS011;51175;51.186;0.276;2024-01-16T00:29:00;9.32;;;4.57;;
64738;SDS011;51175;51.186;0.276;2024-01-16T00:29:31;7.43;;;4.03;;
64738;SDS011;51175;51.186;0.276;2024-01-16T00:30:01;8.63;;;4.20;;
64738;SDS011;51175;51.186;0.276;2024-01-16T00:30:32;13.20;;;5.43;;
64738;SDS011;51175;51.186;0.276;2024-01-16T00:31:06;14.57;;;5.25;;
64738;SDS011;51175;51.186;0.276;2024-01-16T00:31:38;9.88;;;4.85;;
64738;SDS011;51175;51.186;0.276;2024-01-16T00:32:09;13.95;;;5.05;;
64738;SDS011;51175;51.186;0.276;2024-01-16T00:32:39;11.10;;;5.25;;
64738;SDS011;51175;51.186;0.276;2024-01-16T00:33:10;10.82;;;4.75;;
64738;SDS011;51175;51.186;0.276;2024-01-16T00:33:42;10.60;;;4.80;;
64738;SDS011;51175;51.186;0.276;2024-01-16T00:34:12;9.25;;;4.72;;
64738;SDS011;51175;51.186;0.276;2024-01-16T00:34:43;10.88;;;5.72;;
64738;SDS011;51175;51.186;0.276;2024-01-16T00:35:13;10.63;;;5.22;;
64738;SDS011;51175;51.186;0.276;2024-01-16T00:35:44;12.48;;;5.22;;
64738;SDS011;51175;51.186;0.276;2024-01-16T00:36:14;10.65;;;5.13;;
64738;SDS011;51175;51.186;0.276;2024-01-16T00:36:45;12.85;;;5.03;;
64738;SDS011;51175;51.186;0.276;2024-01-16T00:37:15;10.68;;;4.57;;
64738;SDS011;51175;51.186;0.276;2024-01-16T00:37:45;12.57;;;5.18;;
64738;SDS011;51175;51.186;0.276;2024-01-16T00:38:16;11.23;;;4.80;;
64738;SDS011;51175;51.186;0.276;2024-01-16T00:38:46;9.27;;;4.68;;
64738;SDS011;51175;51.186;0.276;2024-01-16T00:39:17;9.48;;;4.18;;
64738;SDS011;51175;51.186;0.276;2024-01-16T00:39:47;7.88;;;4.55;;
64738;SDS011;51175;51.186;0.276;2024-01-16T00:40:17;11.48;;;5.60;;
64738;SDS011;51175;51.186;0.276;2024-01-16T00:40:48;9.15;;;4.90;;
64738;SDS011;51175;51.186;0.276;2024-01-16T00:41:18;10.43;;;4.78;;
64738;SDS011;51175;51.186;0.276;2024-01-16T00:41:49;11.30;;;4.03;;
64738;SDS011;51175;51.186;0.276;2024-01-16T00:42:20;12.20;;;6.10;;
64738;SDS011;51175;51.186;0.276;2024-01-16T00:42:51;11.70;;;4.75;;
64738;SDS011;51175;51.186;0.276;2024-01-16T00:43:21;11.63;;;5.45;;
64738;SDS011;51175;51.186;0.276;2024-01-16T00:43:52;13.70;;;5.60;;
64738;SDS011;51175;51.186;0.276;2024-01-16T00:44:22;10.95;;;6.38;;
64738;SDS011;51175;51.186;0.276;2024-01-16T00:44:52;19.52;;;6.43;;
64738;SDS011;51175;51.186;0.276;2024-01-16T00:45:23;12.77;;;6.38;;
64738;SDS011;51175;51.186;0.276;2024-01-16T00:45:54;10.90;;;5.18;;
64738;SDS011;51175;51.186;0.276;2024-01-16T00:46:24;10.43;;;4.75;;
64738;SDS011;51175;51.186;0.276;2024-01-16T00:46:54;13.55;;;4.85;;
64738;SDS011;51175;51.186;0.276;2024-01-16T00:47:25;8.70;;;5.00;;
64738;SDS011;51175;51.186;0.276;2024-01-16T00:47:55;12.55;;;5.10;;
64738;SDS011;51175;51.186;0.276;2024-01-16T00:48:25;12.60;;;5.43;;
64738;SDS011;51175;51.186;0.276;2024-01-16T00:48:56;8.30;;;4.70;;
64738;SDS011;51175;51.186;0.276;2024-01-16T00:49:26;13.88;;;5.75;;
64738;SDS011;51175;51.186;0.276;2024-01-16T00:50:00;15.68;;;5.95;;
64738;SDS011;51175;51.186;0.276;2024-01-16T00:50:32;14.27;;;5.88;;
64738;SDS011;51175;51.186;0.276;2024-01-16T00:51:02;11.43;;;5.40;;
64738;SDS011;51175;51.186;0.276;2024-01-16T00:51:33;12.20;;;5.03;;
64738;SDS011;51175;51.186;0.276;2024-01-16T00:52:03;11.70;;;4.85;;
64738;SDS011;51175;51.186;0.276;2024-01-16T00:52:34;9.65;;;4.50;;
64738;SDS011;51175;51.186;0.276;2024-01-16T00:53:04;10.63;;;4.43;;
64738;SDS011;51175;51.186;0.276;2024-01-16T00:53:39;9.35;;;4.70;;
64738;SDS011;51175;51.186;0.276;2024-01-16T00:54:13;9.75;;;5.65;;
64738;SDS011;51175;51.186;0.276;2024-01-16T00:54:43;12.82;;;5.00;;
64738;SDS011;51175;51.186;0.276;2024-01-16T00:55:14;8.60;;;4.53;;
64738;SDS011;51175;51.186;0.276;2024-01-16T00:55:44;7.28;;;4.55;;
64738;SDS011;51175;51.186;0.276;2024-01-16T00:56:15;8.27;;;5.13;;
64738;SDS011;51175;51.186;0.276;2024-01-16T00:56:45;12.18;;;5.00;;
64738;SDS011;51175;51.186;0.276;2024-01-16T00:57:16;16.02;;;6.13;;
64738;SDS011;51175;51.186;0.276;2024-01-16T00:57:49;12.02;;;5.70;;
64738;SDS011;51175;51.186;0.276;2024-01-16T00:58:19;10.45;;;6.13;;
64738;SDS011;51175;51.186;0.276;2024-01-16T00:58:51;11.23;;;6.65;;
64738;SDS011;51175;51.186;0.276;2024-01-16T00:59:22;16.08;;;8.55;;
64738;SDS011;51175;51.186;0.276;2024-01-16T00:59:53;15.63;;;7.18;;
64738;SDS011;51175;51.186;0.276;2024-01-16T01:00:23;13.13;;;7.00;;
64738;SDS011;51175;51.186;0.276;2024-01-16T01:00:53;12.35;;;6.82;;
64738;SDS011;51175;51.186;0.276;2024-01-16T01:01:24;14.85;;;7.88;;
64738;SDS011;51175;51.186;0.276;2024-01-16T01:01:54;17.50;;;6.85;;
64738;SDS011;51175;51.186;0.276;2024-01-16T01:02:25;13.85;;;7.20;;
64738;SDS011;51175;51.186;0.276;2024-01-16T01:02:55;15.70;;;6.38;;
64738;SDS011;51175;51.186;0.276;2024-01-16T01:03:26;10.32;;;5.63;;
64738;SDS011;51175;51.186;0.276;2024-01-16T01:03:56;12.27;;;6.05;;
64738;SDS011;51175;51.186;0.276;2024-01-16T01:04:27;13.00;;;6.70;;
64738;SDS011;51175;51.186;0.276;2024-01-16T01:04:57;10.68;;;6.65;;
64738;SDS011;51175;51.186;0.276;2024-01-16T01:05:27;13.65;;;7.20;;
64738;SDS011;51175;51.186;0.276;2024-01-16T01:05:59;13.35;;;5.72;;
64738;SDS011;51175;51.186;0.276;2024-01-16T01:06:30;15.25;;;6.63;;
64738;SDS011;51175;51.186;0.276;2024-01-16T01:07:00;14.05;;;7.60;;
64738;SDS011;51175;51.186;0.276;2024-01-16T01:07:31;13.57;;;6.70;;
64738;SDS011;51175;51.186;0.276;2024-01-16T01:08:01;12.88;;;6.68;;
64738;SDS011;51175;51.186;0.276;2024-01-16T01:08:32;11.20;;;6.97;;
64738;SDS011;51175;51.186;0.276;2024-01-16T01:09:02;12.43;;;6.50;;
64738;SDS011;51175;51.186;0.276;2024-01-16T01:09:33;15.25;;;7.07;;
64738;SDS011;51175;51.186;0.276;2024-01-16T01:10:03;11.40;;;6.32;;
64738;SDS011;51175;51.186;0.276;2024-01-16T01:10:34;18.88;;;8.85;;
64738;SDS011;51175;51.186;0.276;2024-01-16T01:11:04;11.80;;;5.82;;
64738;SDS011;51175;51.186;0.276;2024-01-16T01:11:35;13.90;;;7.18;;
64738;SDS011;51175;51.186;0.276;2024-01-16T01:12:05;14.30;;;7.43;;
64738;SDS011;51175;51.186;0.276;2024-01-16T01:12:36;13.80;;;6.32;;
64738;SDS011;51175;51.186;0.276;2024-01-16T01:13:06;10.05;;;5.68;;
64738;SDS011;51175;51.186;0.276;2024-01-16T01:13:36;11.95;;;7.22;;
64738;SDS011;51175;51.186;0.276;2024-01-16T01:14:07;11.68;;;6.75;;
64738;SDS011;51175;51.186;0.276;2024-01-16T01:14:37;15.60;;;8.05;;
64738;SDS011;51175;51.186;0.276;2024-01-16T01:15:08;12.35;;;5.43;;
64738;SDS011;51175;51.186;0.276;2024-01-16T01:15:38;11.55;;;6.00;;
64738;SDS011;51175;51.186;0.276;2024-01-16T01:16:09;12.57;;;6.55;;
64738;SDS011;51175;51.186;0.276;2024-01-16T01:16:39;13.90;;;7.32;;
64738;SDS011;51175;51.186;0.276;2024-01-16T01:17:10;14.75;;;7.35;;
64738;SDS011;51175;51.186;0.276;2024-01-16T01:17:40;17.70;;;7.13;;
64738;SDS011;51175;51.186;0.276;2024-01-16T01:18:11;12.90;;;6.88;;
64738;SDS011;51175;51.186;0.276;2024-01-16T01:18:41;10.50;;;5.75;;
64738;SDS011;51175;51.186;0.276;2024-01-16T01:19:12;11.00;;;6.57;;
64738;SDS011;51175;51.186;0.276;2024-01-16T01:19:42;18.40;;;7.10;;
64738;SDS011;51175;51.186;0.276;2024-01-16T01:20:13;12.00;;;6.22;;
64738;SDS011;51175;51.186;0.276;2024-01-16T01:20:43;12.50;;;6.88;;
64738;SDS011;51175;51.186;0.276;2024-01-16T01:21:14;14.32;;;7.55;;
64738;SDS011;51175;51.186;0.276;2024-01-16T01:21:44;12.90;;;7.07;;
64738;SDS011;51175;51.186;0.276;2024-01-16T01:22:14;12.10;;;6.50;;
64738;SDS011;51175;51.186;0.276;2024-01-16T01:22:45;12.95;;;7.43;;
64738;SDS011;51175;51.186;0.276;2024-01-16T01:23:16;10.07;;;6.20;;
64738;SDS011;51175;51.186;0.276;2024-01-16T01:23:46;15.25;;;7.22;;
64738;SDS011;51175;51.186;0.276;2024-01-16T01:24:16;16.15;;;7.50;;
64738;SDS011;51175;51.186;0.276;2024-01-16T01:24:47;14.23;;;6.25;;
64738;SDS011;51175;51.186;0.276;2024-01-16T01:25:17;13.10;;;6.78;;
64738;SDS011;51175;51.186;0.276;2024-01-16T01:25:48;16.13;;;6.78;;
64738;SDS011;51175;51.186;0.276;2024-01-16T01:26:18;11.77;;;6.72;;
64738;SDS011;51175;51.186;0.276;2024-01-16T01:26:49;11.63;;;6.45;;
64738;SDS011;51175;51.186;0.276;2024-01-16T01:27:19;14.43;;;7.07;;
64738;SDS011;51175;51.186;0.276;2024-01-16T01:27:50;13.15;;;7.07;;
64738;SDS011;51175;51.186;0.276;2024-01-16T01:28:20;14.68;;;7.45;;
64738;SDS011;51175;51.186;0.276;2024-01-16T01:28:50;10.25;;;5.95;;
64738;SDS011;51175;51.186;0.276;2024-01-16T01:29:21;10.25;;;6.88;;
64738;SDS011;51175;51.186;0.276;2024-01-16T01:29:52;10.10;;;5.65;;
64738;SDS011;51175;51.186;0.276;2024-01-16T01:30:22;14.20;;;6.53;;
64738;SDS011;51175;51.186;0.276;2024-01-16T01:30:52;14.80;;;6.82;;
64738;SDS011;51175;51.186;0.276;2024-01-16T01:31:23;19.13;;;7.47;;
64738;SDS011;51175;51.186;0.276;2024-01-16T01:31:53;8.48;;;5.47;;
64738;SDS011;51175;51.186;0.276;2024-01-16T01:32:23;16.02;;;7.13;;
64738;SDS011;51175;51.186;0.276;2024-01-16T01:32:54;15.13;;;7.03;;
64738;SDS011;51175;51.186;0.276;2024-01-16T01:33:24;13.63;;;7.05;;
64738;SDS011;51175;51.186;0.276;2024-01-16T01:33:54;11.95;;;6.25;;
64738;SDS011;51175;51.186;0.276;2024-01-16T01:34:25;11.65;;;7.07;;
64738;SDS011;51175;51.186;0.276;2024-01-16T01:34:55;13.10;;;6.50;;
64738;SDS011;51175;51.186;0.276;2024-01-16T01:35:26;13.32;;;6.53;;
64738;SDS011;51175;51.186;0.276;2024-01-16T01:35:57;13.20;;;7.15;;
64738;SDS011;51175;51.186;0.276;2024-01-16T01:36:27;16.15;;;7.95;;
64738;SDS011;51175;51.186;0.276;2024-01-16T01:36:58;17.23;;;6.88;;
64738;SDS011;51175;51.186;0.276;2024-01-16T01:37:28;12.60;;;5.85;;
64738;SDS011;51175;51.186;0.276;2024-01-16T01:37:59;10.88;;;6.18;;
64738;SDS011;51175;51.186;0.276;2024-01-16T01:38:29;15.07;;;6.05;;
64738;SDS011;51175;51.186;0.276;2024-01-16T01:38:59;13.38;;;6.63;;
64738;SDS011;51175;51.186;0.276;2024-01-16T01:39:30;13.38;;;6.75;;
64738;SDS011;51175;51.186;0.276;2024-01-16T01:40:01;10.32;;;5.65;;
64738;SDS011;51175;51.186;0.276;2024-01-16T01:40:31;14.55;;;6.47;;
64738;SDS011;51175;51.186;0.276;2024-01-16T01:41:01;18.88;;;6.30;;
64738;SDS011;51175;51.186;0.276;2024-01-16T01:41:32;9.43;;;5.88;;
64738;SDS011;51175;51.186;0.276;2024-01-16T01:42:02;17.33;;;6.82;;
64738;SDS011;51175;51.186;0.276;2024-01-16T01:42:33;11.02;;;5.63;;
64738;SDS011;51175;51.186;0.276;2024-01-16T01:43:53;10.55;;;5.55;;
64738;SDS011;51175;51.186;0.276;2024-01-16T01:44:23;11.80;;;5.50;;
64738;SDS011;51175;51.186;0.276;2024-01-16T01:44:55;13.45;;;7.50;;
64738;SDS011;51175;51.186;0.276;2024-01-16T01:45:25;12.05;;;6.20;;
64738;SDS011;51175;51.186;0.276;2024-01-16T01:46:53;10.55;;;4.68;;
64738;SDS011;51175;51.186;0.276;2024-01-16T01:47:24;12.00;;;5.63;;
64738;SDS011;51175;51.186;0.276;2024-01-16T01:47:55;8.90;;;4.97;;
64738;SDS011;51175;51.186;0.276;2024-01-16T01:48:26;11.68;;;5.60;;
64738;SDS011;51175;51.186;0.276;2024-01-16T01:48:57;12.23;;;5.68;;
64738;SDS011;51175;51.186;0.276;2024-01-16T01:49:27;12.15;;;6.03;;
64738;SDS011;51175;51.186;0.276;2024-01-16T01:49:58;11.93;;;6.43;;
64738;SDS011;51175;51.186;0.276;2024-01-16T01:50:29;9.43;;;5.30;;
64738;SDS011;51175;51.186;0.276;2024-01-16T01:50:59;16.33;;;6.47;;
64738;SDS011;51175;51.186;0.276;2024-01-16T01:51:31;12.73;;;6.85;;
64738;SDS011;51175;51.186;0.276;2024-01-16T01:52:03;11.60;;;6.03;;
64738;SDS011;51175;51.186;0.276;2024-01-16T01:52:35;13.63;;;6.00;;
64738;SDS011;51175;51.186;0.276;2024-01-16T01:53:08;11.82;;;5.97;;
64738;SDS011;51175;51.186;0.276;2024-01-16T01:53:39;9.65;;;5.60;;
64738;SDS011;51175;51.186;0.276;2024-01-16T01:54:12;15.10;;;6.60;;
64738;SDS011;51175;51.186;0.276;2024-01-16T01:54:45;16.65;;;7.03;;
64738;SDS011;51175;51.186;0.276;2024-01-16T01:55:16;12.88;;;6.65;;
64738;SDS011;51175;51.186;0.276;2024-01-16T01:55:47;15.45;;;7.18;;
64738;SDS011;51175;51.186;0.276;2024-01-16T01:56:18;17.23;;;6.47;;
64738;SDS011;51175;51.186;0.276;2024-01-16T01:56:49;12.38;;;6.35;;
64738;SDS011;51175;51.186;0.276;2024-01-16T01:57:21;14.88;;;5.57;;
64738;SDS011;51175;51.186;0.276;2024-01-16T01:57:51;12.18;;;6.63;;
64738;SDS011;51175;51.186;0.276;2024-01-16T01:58:22;15.50;;;7.38;;
64738;SDS011;51175;51.186;0.276;2024-01-16T01:58:53;11.27;;;6.55;;
64738;SDS011;51175;51.186;0.276;2024-01-16T01:59:26;16.60;;;6.18;;
64738;SDS011;51175;51.186;0.276;2024-01-16T01:59:57;12.10;;;5.75;;
64738;SDS011;51175;51.186;0.276;2024-01-16T02:00:28;12.73;;;6.03;;
64738;SDS011;51175;51.186;0.276;2024-01-16T02:00:58;11.88;;;6.47;;
64738;SDS011;51175;51.186;0.276;2024-01-16T02:01:30;12.27;;;7.22;;
64738;SDS011;51175;51.186;0.276;2024-01-16T02:02:02;9.70;;;5.60;;
64738;SDS011;51175;51.186;0.276;2024-01-16T02:02:34;11.82;;;6.40;;
64738;SDS011;51175;51.186;0.276;2024-01-16T02:03:05;9.73;;;5.47;;
64738;SDS011;51175;51.186;0.276;2024-01-16T02:03:39;11.50;;;6.47;;
64738;SDS011;51175;51.186;0.276;2024-01-16T02:04:15;13.35;;;6.53;;
64738;SDS011;51175;51.186;0.276;2024-01-16T02:04:47;14.98;;;7.57;;
64738;SDS011;51175;51.186;0.276;2024-01-16T02:05:18;12.18;;;6.45;;
64738;SDS011;51175;51.186;0.276;2024-01-16T02:05:49;18.20;;;7.03;;
64738;SDS011;51175;51.186;0.276;2024-01-16T02:06:21;14.18;;;5.78;;
64738;SDS011;51175;51.186;0.276;2024-01-16T02:06:51;11.77;;;6.15;;
64738;SDS011;51175;51.186;0.276;2024-01-16T02:07:23;13.60;;;5.93;;
64738;SDS011;51175;51.186;0.276;2024-01-16T02:07:53;9.73;;;6.20;;
64738;SDS011;51175;51.186;0.276;2024-01-16T02:08:24;14.00;;;7.28;;
64738;SDS011;51175;51.186;0.276;2024-01-16T02:08:55;10.05;;;6.20;;
64738;SDS011;51175;51.186;0.276;2024-01-16T02:09:25;11.60;;;6.10;;
64738;SDS011;51175;51.186;0.276;2024-01-16T02:09:56;9.93;;;6.20;;
64738;SDS011;51175;51.186;0.276;2024-01-16T02:10:26;13.88;;;6.65;;
64738;SDS011;51175;51.186;0.276;2024-01-16T02:10:57;12.80;;;8.55;;
64738;SDS011;51175;51.186;0.276;2024-01-16T02:11:27;10.40;;;6.30;;
64738;SDS011;51175;51.186;0.276;2024-01-16T02:11:58;10.98;;;6.25;;
64738;SDS011;51175;51.186;0.276;2024-01-16T02:12:28;12.15;;;7.00;;
64738;SDS011;51175;51.186;0.276;2024-01-16T02:12:59;12.27;;;6.40;;
64738;SDS011;51175;51.186;0.276;2024-01-16T02:13:30;12.68;;;6.57;;
64738;SDS011;51175;51.186;0.276;2024-01-16T02:14:00;11.77;;;6.32;;
64738;SDS011;51175;51.186;0.276;2024-01-16T02:14:30;13.98;;;6.25;;
64738;SDS011;51175;51.186;0.276;2024-01-16T02:15:01;11.57;;;6.18;;
64738;SDS011;51175;51.186;0.276;2024-01-16T02:15:33;14.35;;;6.63;;
64738;SDS011;51175;51.186;0.276;2024-01-16T02:16:03;11.02;;;6.22;;
64738;SDS011;51175;51.186;0.276;2024-01-16T02:16:36;17.50;;;6.43;;
64738;SDS011;51175;51.186;0.276;2024-01-16T02:17:10;14.30;;;7.10;;
64738;SDS011;51175;51.186;0.276;2024-01-16T02:17:40;10.82;;;5.95;;
64738;SDS011;51175;51.186;0.276;2024-01-16T02:18:11;12.90;;;6.63;;
64738;SDS011;51175;51.186;0.276;2024-01-16T02:18:41;10.07;;;5.80;;
64738;SDS011;51175;51.186;0.276;2024-01-16T02:19:12;16.35;;;7.00;;
64738;SDS011;51175;51.186;0.276;2024-01-16T02:19:42;11.10;;;6.85;;
64738;SDS011;51175;51.186;0.276;2024-01-16T02:20:12;16.40;;;6.85;;
64738;SDS011;51175;51.186;0.276;2024-01-16T02:20:43;10.52;;;7.15;;
64738;SDS011;51175;51.186;0.276;2024-01-16T02:21:25;13.60;;;7.10;;
64738;SDS011;51175;51.186;0.276;2024-01-16T02:21:59;14.27;;;6.25;;
64738;SDS011;51175;51.186;0.276;2024-01-16T02:22:30;12.95;;;6.43;;
64738;SDS011;51175;51.186;0.276;2024-01-16T02:23:03;14.43;;;8.40;;
64738;SDS011;51175;51.186;0.276;2024-01-16T02:23:34;14.43;;;6.82;;
64738;SDS011;51175;51.186;0.276;2024-01-16T02:24:05;10.65;;;6.63;;
64738;SDS011;51175;51.186;0.276;2024-01-16T02:24:36;13.40;;;6.70;;
64738;SDS011;51175;51.186;0.276;2024-01-16T02:25:06;18.40;;;7.75;;
64738;SDS011;51175;51.186;0.276;2024-01-16T02:25:37;19.05;;;7.80;;
64738;SDS011;51175;51.186;0.276;2024-01-16T02:26:09;16.63;;;7.47;;
64738;SDS011;51175;51.186;0.276;2024-01-16T02:26:39;13.73;;;6.82;;
64738;SDS011;51175;51.186;0.276;2024-01-16T02:27:10;13.30;;;6.07;;
64738;SDS011;51175;51.186;0.276;2024-01-16T02:27:40;10.80;;;6.25;;
64738;SDS011;51175;51.186;0.276;2024-01-16T02:28:10;12.27;;;6.65;;
64738;SDS011;51175;51.186;0.276;2024-01-16T02:28:41;13.50;;;6.65;;
64738;SDS011;51175;51.186;0.276;2024-01-16T02:29:12;13.32;;;6.97;;
64738;SDS011;51175;51.186;0.276;2024-01-16T02:29:42;13.65;;;7.97;;
64738;SDS011;51175;51.186;0.276;2024-01-16T02:30:13;12.02;;;6.55;;
64738;SDS011;51175;51.186;0.276;2024-01-16T02:30:43;14.85;;;7.05;;
64738;SDS011;51175;51.186;0.276;2024-01-16T02:31:13;11.65;;;6.70;;
64738;SDS011;51175;51.186;0.276;2024-01-16T02:31:44;10.90;;;5.97;;
64738;SDS011;51175;51.186;0.276;2024-01-16T02:32:15;14.45;;;6.97;;
64738;SDS011;51175;51.186;0.276;2024-01-16T02:32:46;16.00;;;6.93;;
64738;SDS011;51175;51.186;0.276;2024-01-16T02:33:16;13.75;;;6.85;;
64738;SDS011;51175;51.186;0.276;2024-01-16T02:33:47;13.55;;;5.85;;
64738;SDS011;51175;51.186;0.276;2024-01-16T02:34:17;9.98;;;6.35;;
64738;SDS011;51175;51.186;0.276;2024-01-16T02:34:48;12.27;;;6.75;;
64738;SDS011;51175;51.186;0.276;2024-01-16T02:35:18;14.32;;;6.90;;
64738;SDS011;51175;51.186;0.276;2024-01-16T02:35:49;10.65;;;6.53;;
64738;SDS011;51175;51.186;0.276;2024-01-16T02:36:19;13.93;;;6.55;;
64738;SDS011;51175;51.186;0.276;2024-01-16T02:36:50;10.18;;;6.82;;
64738;SDS011;51175;51.186;0.276;2024-01-16T02:37:21;14.40;;;7.88;;
64738;SDS011;51175;51.186;0.276;2024-01-16T02:37:52;10.90;;;6.32;;
64738;SDS011;51175;51.186;0.276;2024-01-16T02:38:22;15.63;;;7.63;;
64738;SDS011;51175;51.186;0.276;2024-01-16T02:38:53;13.88;;;6.50;;
64738;SDS011;51175;51.186;0.276;2024-01-16T02:39:23;9.68;;;6.65;;
64738;SDS011;51175;51.186;0.276;2024-01-16T02:39:53;12.20;;;5.82;;
64738;SDS011;51175;51.186;0.276;2024-01-16T02:40:24;12.77;;;7.25;;
64738;SDS011;51175;51.186;0.276;2024-01-16T02:40:55;16.75;;;7.60;;
64738;SDS011;51175;51.186;0.276;2024-01-16T02:41:25;10.23;;;6.63;;
64738;SDS011;51175;51.186;0.276;2024-01-16T02:41:56;11.70;;;5.95;;
64738;SDS011;51175;51.186;0.276;2024-01-16T02:42:26;10.80;;;6.53;;
64738;SDS011;51175;51.186;0.276;2024-01-16T02:42:57;14.32;;;6.55;;
64738;SDS011;51175;51.186;0.276;2024-01-16T02:43:27;12.65;;;6.43;;
64738;SDS011;51175;51.186;0.276;2024-01-16T02:43:57;11.20;;;6.25;;
64738;SDS011;51175;51.186;0.276;2024-01-16T02:44:28;10.13;;;6.60;;
64738;SDS011;51175;51.186;0.276;2024-01-16T02:44:58;13.75;;;6.68;;
64738;SDS011;51175;51.186;0.276;2024-01-16T02:45:28;9.00;;;5.75;;
64738;SDS011;51175;51.186;0.276;2024-01-16T02:45:59;14.18;;;5.88;;
64738;SDS011;51175;51.186;0.276;2024-01-16T02:46:29;11.73;;;6.38;;
64738;SDS011;51175;51.186;0.276;2024-01-16T02:47:00;11.35;;;6.30;;
64738;SDS011;51175;51.186;0.276;2024-01-16T02:47:30;12.65;;;6.03;;
64738;SDS011;51175;51.186;0.276;2024-01-16T02:48:01;14.25;;;7.10;;
64738;SDS011;51175;51.186;0.276;2024-01-16T02:48:33;12.45;;;7.15;;
64738;SDS011;51175;51.186;0.276;2024-01-16T02:49:03;11.70;;;7.32;;
64738;SDS011;51175;51.186;0.276;2024-01-16T02:49:34;10.82;;;6.30;;
64738;SDS011;51175;51.186;0.276;2024-01-16T02:50:06;10.70;;;6.78;;
64738;SDS011;51175;51.186;0.276;2024-01-16T02:50:39;12.82;;;6.13;;
64738;SDS011;51175;51.186;0.276;2024-01-16T02:51:10;14.43;;;6.63;;
64738;SDS011;51175;51.186;0.276;2024-01-16T02:51:40;14.38;;;6.72;;
64738;SDS011;51175;51.186;0.276;2024-01-16T02:52:10;11.55;;;6.82;;
64738;SDS011;51175;51.186;0.276;2024-01-16T02:52:41;12.05;;;6.47;;
64738;SDS011;51175;51.186;0.276;2024-01-16T02:53:11;13.30;;;6.20;;
64738;SDS011;51175;51.186;0.276;2024-01-16T02:53:42;10.93;;;5.97;;
64738;SDS011;51175;51.186;0.276;2024-01-16T02:54:12;15.25;;;6.63;;
64738;SDS011;51175;51.186;0.276;2024-01-16T02:54:44;16.33;;;7.10;;
64738;SDS011;51175;51.186;0.276;2024-01-16T02:55:14;11.15;;;6.45;;
64738;SDS011;51175;51.186;0.276;2024-01-16T02:55:45;12.85;;;6.90;;
64738;SDS011;51175;51.186;0.276;2024-01-16T02:56:18;12.25;;;6.53;;
64738;SDS011;51175;51.186;0.276;2024-01-16T02:56:48;11.05;;;6.15;;
64738;SDS011;51175;51.186;0.276;2024-01-16T02:57:19;15.27;;;7.25;;
64738;SDS011;51175;51.186;0.276;2024-01-16T02:57:50;11.00;;;6.30;;
64738;SDS011;51175;51.186;0.276;2024-01-16T02:58:20;16.15;;;8.13;;
64738;SDS011;51175;51.186;0.276;2024-01-16T02:58:51;12.90;;;6.20;;
64738;SDS011;51175;51.186;0.276;2024-01-16T02:59:21;13.70;;;7.25;;
64738;SDS011;51175;51.186;0.276;2024-01-16T02:59:52;12.73;;;7.47;;
64738;SDS011;51175;51.186;0.276;2024-01-16T03:00:22;11.13;;;7.53;;
64738;SDS011;51175;51.186;0.276;2024-01-16T03:00:53;12.88;;;7.10;;
64738;SDS011;51175;51.186;0.276;2024-01-16T03:01:24;15.65;;;8.27;;
64738;SDS011;51175;51.186;0.276;2024-01-16T03:01:54;12.88;;;8.00;;
64738;SDS011;51175;51.186;0.276;2024-01-16T03:02:24;14.90;;;7.32;;
64738;SDS011;51175;51.186;0.276;2024-01-16T03:02:55;14.00;;;7.85;;
64738;SDS011;51175;51.186;0.276;2024-01-16T03:03:26;13.70;;;7.68;;
64738;SDS011;51175;51.186;0.276;2024-01-16T03:03:56;24.08;;;9.07;;
64738;SDS011;51175;51.186;0.276;2024-01-16T03:04:26;12.57;;;6.47;;
64738;SDS011;51175;51.186;0.276;2024-01-16T03:04:57;14.82;;;6.43;;